Aérodrome :
LOGIN :

S'inscrire | Disclaimer

   EN    FR    IT 

 










Légende :    VFR   VFR Marginal   IFR   IFR Intensif   IFR Très Intensif
Visi : 
Plafond : 
>= 8 km
>= 3000ft
5 à 8 km
1000 à 3000 ft
1500m à 5 km
500 à 1000 ft
800 à 1500m
200 à 500 ft
< 800m
< 200 ft
Symboles :   Orages  Brouillard  Fortes neiges  Fortes précipitations  Vent > 20 kt
SIGMETs :   Divers  Orages  Givrage  Turbulence  Onde Orograph.  Cendres Volcan.







- Altitude de l'aérodrome : 821 ft
- Code IATA : LYS
- Voir les cartes d'approche


LFLL - Lyon St Exupéry / Satolas

DERNIER METAR :
  • 240430Z 00000KT CAVOK 21/16 Q1017 NOSIG

METARs EXPIRÉS :
  • 240400Z 28001KT CAVOK 21/16 Q1017 NOSIG
  • 240330Z 27004KT CAVOK 21/16 Q1017 NOSIG
  • 240300Z 26004KT CAVOK 21/16 Q1017 NOSIG
  • 240230Z 27003KT CAVOK 21/16 Q1017 NOSIG
  • 240200Z 25003KT CAVOK 21/16 Q1017 NOSIG

TAF TAF LFLL
Valide du 24 à 00h jusqu'au 25 à 06h UTC


232300Z 2400/2506 32005KT CAVOK
BECMG 2402/2406 18009KT
TEMPO 2411/2416 18015G25KT FEW070CB
Pas de NOTAMs connus pour ce terrain.



MET'MAP, la Météo Aéronautique d'un coup d'oeil ! - Copyright ORBIFLY Décembre 2007 - Disclaimer

ORBIFLY MET'MAP TEAM :

Programmation & Développement : Alexandra Zaïnal
Conception & Développement : Baudouin d'Aumeries
Co-Programmation & Développement : Marc-Olivier Méhu
Soutien technique & logistique : Manuel Goepfert

Contact : metmap@orbifly.com




SOURCES & CREDITS :

   NOAA